Time;durP1;ratioP1;P1;durP2;ratioP2;P2;SDS_P1;SDS_P2;PMS_P1;PMS_P2;Temp;Humidity;BMP_temperature;BMP_pressure;BME280_temperature;BME280_humidity;BME280_pressure;Samples;Min_cycle;Max_cycle;Signal;HPM_P1;HPM_P2
2021/09/02 00:00:32;;;;;;;9.80;8.70;;;18.10;99.90;;;;;;5003740;28;20299;-62
2021/09/02 00:02:57;;;;;;;11.90;8.50;;;18.00;99.90;;;;;;5001997;28;20273;-62
2021/09/02 00:05:23;;;;;;;10.53;9.10;;;18.10;99.90;;;;;;5004079;28;20241;-62
2021/09/02 00:07:49;;;;;;;10.57;9.07;;;18.10;99.90;;;;;;5004381;28;20192;-62
2021/09/02 00:10:15;;;;;;;8.67;7.77;;;18.20;99.90;;;;;;5002894;28;20679;-62
2021/09/02 00:12:41;;;;;;;10.23;8.60;;;18.20;99.90;;;;;;5004064;28;20463;-62
2021/09/02 00:15:08;;;;;;;9.80;8.80;;;18.10;99.90;;;;;;5001953;28;20245;-62
2021/09/02 00:17:34;;;;;;;10.23;8.40;;;18.20;99.90;;;;;;5002410;28;20198;-62
2021/09/02 00:19:59;;;;;;;10.27;9.03;;;18.00;99.90;;;;;;5003809;28;20528;-62
2021/09/02 00:22:25;;;;;;;9.83;8.60;;;18.10;99.90;;;;;;5005092;28;20659;-63
2021/09/02 00:24:50;;;;;;;8.83;7.73;;;18.10;99.90;;;;;;5003951;28;20731;-62
2021/09/02 00:27:17;;;;;;;10.87;9.00;;;18.00;99.90;;;;;;5000507;28;20202;-61
2021/09/02 00:29:42;;;;;;;12.20;8.87;;;18.10;99.90;;;;;;5002375;28;20193;-62
2021/09/02 00:32:08;;;;;;;10.43;8.17;;;18.00;99.90;;;;;;5001104;28;20449;-62
2021/09/02 00:34:33;;;;;;;10.77;8.93;;;17.90;99.90;;;;;;5003987;28;20194;-62
2021/09/02 00:36:59;;;;;;;8.80;7.90;;;18.00;99.90;;;;;;5001039;28;20222;-62
2021/09/02 00:39:25;;;;;;;8.67;7.73;;;18.00;99.90;;;;;;5002586;28;20217;-61
2021/09/02 00:41:50;;;;;;;10.20;8.20;;;17.90;99.90;;;;;;5016574;28;20201;-62
2021/09/02 00:44:33;;;;;;;12.10;9.10;;;17.90;99.90;;;;;;5003849;28;20200;-62
2021/09/02 00:47:01;;;;;;;10.33;7.97;;;17.80;99.90;;;;;;5002768;28;20204;-62
2021/09/02 00:49:27;;;;;;;8.93;8.07;;;17.60;99.90;;;;;;5001816;28;20428;-62
2021/09/02 00:51:53;;;;;;;12.47;8.37;;;17.70;99.90;;;;;;5004595;28;20489;-62
2021/09/02 00:54:19;;;;;;;8.47;7.33;;;17.80;99.90;;;;;;4999046;28;20451;-62
2021/09/02 00:56:44;;;;;;;9.23;8.03;;;17.70;99.90;;;;;;5000384;28;20311;-62
2021/09/02 00:59:10;;;;;;;10.50;8.90;;;17.50;99.90;;;;;;5002416;28;20197;-62
2021/09/02 01:01:36;;;;;;;10.37;9.03;;;17.40;99.90;;;;;;5003408;28;20296;-62
2021/09/02 01:04:03;;;;;;;11.10;8.63;;;17.60;99.90;;;;;;4998522;28;20569;-62
2021/09/02 01:06:29;;;;;;;10.33;8.90;;;17.40;99.90;;;;;;5002030;28;20582;-62
2021/09/02 01:08:56;;;;;;;12.40;8.37;;;17.40;99.90;;;;;;5001026;28;20498;-62
2021/09/02 01:11:23;;;;;;;11.00;8.57;;;17.30;99.90;;;;;;5003185;28;20507;-62
2021/09/02 01:13:48;;;;;;;12.53;8.57;;;17.40;99.90;;;;;;5000798;28;20479;-62
2021/09/02 01:16:14;;;;;;;9.67;8.47;;;17.50;99.90;;;;;;5001332;28;20914;-62
2021/09/02 01:18:40;;;;;;;10.37;8.20;;;17.50;99.90;;;;;;5000046;28;20282;-62
2021/09/02 01:21:05;;;;;;;11.80;7.40;;;17.50;99.90;;;;;;5001890;28;20312;-62
2021/09/02 01:23:38;;;;;;;9.47;8.47;;;17.30;99.90;;;;;;4998964;28;20190;-62
2021/09/02 01:26:21;;;;;;;10.67;8.00;;;17.10;99.90;;;;;;5000716;28;20714;-62
2021/09/02 01:28:47;;;;;;;9.43;8.20;;;17.10;99.90;;;;;;5002163;28;20444;-62
2021/09/02 01:31:17;;;;;;;9.57;8.10;;;17.20;99.90;;;;;;4999293;28;20460;-62
2021/09/02 01:33:48;;;;;;;10.80;9.70;;;17.40;99.90;;;;;;5001564;28;20442;-62
2021/09/02 01:36:13;;;;;;;9.90;8.67;;;17.10;99.90;;;;;;5002094;28;20464;-62
2021/09/02 01:38:39;;;;;;;10.40;8.40;;;17.10;99.90;;;;;;5002610;28;20452;-62
2021/09/02 01:41:05;;;;;;;9.37;7.97;;;17.20;99.90;;;;;;5004383;28;20574;-62
2021/09/02 01:43:30;;;;;;;11.33;8.90;;;17.20;99.90;;;;;;5000091;28;20200;-62
2021/09/02 01:45:56;;;;;;;10.07;8.10;;;17.20;99.90;;;;;;5001732;28;20644;-62
2021/09/02 01:48:22;;;;;;;8.23;7.50;;;17.20;99.90;;;;;;5003273;28;20227;-62
2021/09/02 01:50:47;;;;;;;9.73;8.50;;;17.20;99.90;;;;;;5000973;28;20209;-62
2021/09/02 01:53:18;;;;;;;9.70;8.60;;;17.20;99.90;;;;;;5002709;28;20225;-62
2021/09/02 01:55:45;;;;;;;13.60;8.93;;;17.00;99.90;;;;;;4999983;28;20213;-62
2021/09/02 01:58:11;;;;;;;11.97;8.87;;;16.90;99.90;;;;;;4999689;28;20448;-62
2021/09/02 02:00:37;;;;;;;12.57;8.60;;;16.90;99.90;;;;;;5003415;28;20474;-62
2021/09/02 02:03:03;;;;;;;9.20;7.97;;;16.80;99.90;;;;;;5000535;28;20520;-62
2021/09/02 02:05:30;;;;;;;12.10;8.07;;;16.90;99.90;;;;;;5001880;28;20240;-62
2021/09/02 02:07:55;;;;;;;9.23;7.67;;;17.00;99.90;;;;;;5000483;28;20575;-62
2021/09/02 02:10:26;;;;;;;11.40;7.60;;;17.00;99.90;;;;;;5000607;28;20928;-62
2021/09/02 02:12:56;;;;;;;10.00;8.70;;;17.00;99.90;;;;;;4999527;28;20239;-62
2021/09/02 02:15:22;;;;;;;9.57;8.57;;;17.00;99.90;;;;;;5001023;28;20841;-62
2021/09/02 02:17:48;;;;;;;9.77;8.77;;;17.00;99.90;;;;;;5002178;28;20517;-62
2021/09/02 02:20:14;;;;;;;11.20;7.60;;;17.00;99.90;;;;;;4998060;28;20569;-62
2021/09/02 02:22:40;;;;;;;10.67;8.47;;;16.60;99.90;;;;;;5002868;28;20208;-62
2021/09/02 02:25:07;;;;;;;12.37;8.93;;;16.60;99.90;;;;;;4997700;28;20182;-62
2021/09/02 02:27:33;;;;;;;9.47;8.30;;;16.60;99.90;;;;;;5001070;28;20432;-62
2021/09/02 02:30:00;;;;;;;10.13;7.50;;;16.50;99.90;;;;;;5003091;28;22627;-62
2021/09/02 02:32:25;;;;;;;9.67;8.13;;;16.50;99.90;;;;;;4998457;28;20288;-62
2021/09/02 02:34:51;;;;;;;9.90;8.20;;;16.50;99.90;;;;;;4998840;28;20535;-62
2021/09/02 02:37:17;;;;;;;9.60;8.03;;;16.50;99.90;;;;;;5000053;28;20217;-62
2021/09/02 02:39:43;;;;;;;9.57;8.07;;;16.60;99.90;;;;;;5002316;28;20697;-62
2021/09/02 02:42:10;;;;;;;10.10;8.67;;;16.60;99.90;;;;;;5002517;28;20777;-62
2021/09/02 02:44:36;;;;;;;12.10;8.10;;;16.70;99.90;;;;;;5001363;28;20440;-62
2021/09/02 02:47:03;;;;;;;10.33;8.17;;;16.70;99.90;;;;;;4998846;28;20468;-62
2021/09/02 02:49:29;;;;;;;12.60;8.43;;;16.60;99.90;;;;;;5003941;28;20841;-62
2021/09/02 02:51:55;;;;;;;13.17;8.17;;;16.60;99.90;;;;;;4995411;28;20444;-62
2021/09/02 02:54:20;;;;;;;9.23;8.20;;;16.50;99.90;;;;;;5001866;28;20734;-62
2021/09/02 02:56:46;;;;;;;11.20;9.27;;;16.50;99.90;;;;;;4999187;28;20484;-62
2021/09/02 02:59:11;;;;;;;11.70;8.00;;;16.50;99.90;;;;;;4999188;28;20239;-62
2021/09/02 03:01:38;;;;;;;10.73;8.70;;;16.50;99.90;;;;;;5003307;28;20243;-62
2021/09/02 03:04:03;;;;;;;9.13;7.80;;;16.40;99.90;;;;;;4999474;28;20619;-62
2021/09/02 03:06:29;;;;;;;11.67;8.90;;;16.50;99.90;;;;;;4998618;28;20543;-62
2021/09/02 03:08:55;;;;;;;10.27;8.70;;;16.30;99.90;;;;;;5000457;28;20263;-62
2021/09/02 03:11:21;;;;;;;9.53;7.70;;;16.40;99.90;;;;;;5001370;28;20220;-62
2021/09/02 03:13:46;;;;;;;12.97;7.80;;;16.40;99.90;;;;;;5000764;28;20518;-62
2021/09/02 03:16:12;;;;;;;9.57;8.57;;;16.50;99.90;;;;;;5002013;28;20304;-62
2021/09/02 03:18:37;;;;;;;10.43;7.93;;;16.40;99.90;;;;;;5001126;28;20260;-62
2021/09/02 03:21:03;;;;;;;10.07;7.90;;;16.40;99.90;;;;;;4999238;28;20213;-62
2021/09/02 03:23:29;;;;;;;14.57;8.80;;;16.40;99.90;;;;;;5001409;28;20227;-62
2021/09/02 03:25:55;;;;;;;10.73;8.63;;;16.30;99.90;;;;;;4999385;28;20460;-62
2021/09/02 03:28:20;;;;;;;10.00;8.50;;;16.30;99.90;;;;;;4996991;28;20307;-62
2021/09/02 03:30:46;;;;;;;16.10;8.03;;;16.20;99.90;;;;;;5001310;28;20205;-62
2021/09/02 03:33:11;;;;;;;9.57;8.10;;;16.20;99.90;;;;;;5001785;28;20190;-62
2021/09/02 03:35:37;;;;;;;8.90;7.77;;;16.20;99.90;;;;;;5001288;28;20212;-62
2021/09/02 03:38:03;;;;;;;8.80;7.87;;;16.30;99.90;;;;;;4997920;28;20192;-62
2021/09/02 03:40:29;;;;;;;9.50;8.60;;;16.30;99.90;;;;;;5001125;28;20299;-62
2021/09/02 03:42:54;;;;;;;8.60;7.73;;;16.30;99.90;;;;;;5001785;28;20440;-62
2021/09/02 03:45:20;;;;;;;9.60;7.97;;;16.20;99.90;;;;;;4999615;28;20206;-62
2021/09/02 03:47:47;;;;;;;9.97;8.20;;;16.20;99.90;;;;;;5001336;28;20248;-62
2021/09/02 03:50:14;;;;;;;9.20;8.30;;;16.20;99.90;;;;;;4997477;28;20259;-62
2021/09/02 03:52:40;;;;;;;10.47;7.67;;;16.10;99.90;;;;;;4997688;28;20503;-62
2021/09/02 03:55:06;;;;;;;11.53;7.77;;;16.10;99.90;;;;;;5000275;28;20437;-62
2021/09/02 03:57:31;;;;;;;10.63;9.27;;;16.00;99.90;;;;;;5001025;28;20284;-62
2021/09/02 03:59:57;;;;;;;8.77;7.73;;;16.00;99.90;;;;;;5001827;28;20471;-62
2021/09/02 04:02:22;;;;;;;19.97;8.50;;;16.10;99.90;;;;;;4998168;28;20182;-62
2021/09/02 04:04:48;;;;;;;8.33;7.53;;;16.00;99.90;;;;;;4998689;28;20797;-62
2021/09/02 04:07:13;;;;;;;12.20;8.90;;;16.00;99.90;;;;;;5000143;28;20243;-62
2021/09/02 04:09:39;;;;;;;12.77;8.00;;;16.00;99.90;;;;;;4998454;28;20705;-62
2021/09/02 04:12:05;;;;;;;8.63;7.83;;;16.00;99.90;;;;;;4997410;28;20742;-62
2021/09/02 04:14:30;;;;;;;10.83;8.13;;;16.00;99.90;;;;;;4999890;28;20623;-62
2021/09/02 04:16:56;;;;;;;10.67;8.03;;;16.10;99.90;;;;;;4998890;28;20255;-62
2021/09/02 04:19:24;;;;;;;10.17;8.90;;;16.00;99.90;;;;;;5001068;28;20304;-62
2021/09/02 04:21:50;;;;;;;9.27;7.87;;;15.90;99.90;;;;;;5002753;28;20181;-62
2021/09/02 04:24:17;;;;;;;9.43;8.43;;;15.90;99.90;;;;;;5001132;28;20922;-62
2021/09/02 04:26:43;;;;;;;11.23;9.10;;;15.90;99.90;;;;;;5004762;28;20770;-62
2021/09/02 04:29:09;;;;;;;11.93;8.70;;;16.00;99.90;;;;;;5005110;28;20467;-62
2021/09/02 04:31:34;;;;;;;11.37;9.20;;;15.90;99.90;;;;;;5002871;28;20445;-61
2021/09/02 04:34:00;;;;;;;9.67;8.37;;;15.90;99.90;;;;;;5003154;28;20216;-62
2021/09/02 04:36:25;;;;;;;10.80;8.60;;;15.90;99.90;;;;;;5001846;28;20193;-62
2021/09/02 04:38:51;;;;;;;12.87;9.03;;;15.90;99.90;;;;;;5001540;28;20189;-62
2021/09/02 04:41:17;;;;;;;10.97;8.30;;;15.90;99.90;;;;;;5002301;28;20213;-62
2021/09/02 04:43:42;;;;;;;11.63;9.07;;;15.80;99.90;;;;;;5000759;28;20208;-62
2021/09/02 04:46:11;;;;;;;10.10;8.40;;;15.80;99.90;;;;;;5002421;28;20228;-62
2021/09/02 04:48:37;;;;;;;11.30;9.27;;;15.80;99.90;;;;;;5001252;28;20247;-62
2021/09/02 04:51:03;;;;;;;10.70;8.90;;;15.90;99.90;;;;;;4999009;28;20700;-62
2021/09/02 04:53:28;;;;;;;11.63;8.90;;;15.70;99.90;;;;;;5003377;28;20436;-62
2021/09/02 04:55:54;;;;;;;10.83;8.60;;;15.70;99.90;;;;;;5003310;28;20205;-62
2021/09/02 04:58:20;;;;;;;11.67;8.43;;;15.70;99.90;;;;;;5003227;28;20235;-62
2021/09/02 05:00:45;;;;;;;16.30;9.40;;;15.70;99.90;;;;;;5002931;28;20216;-62
2021/09/02 05:03:11;;;;;;;13.80;9.17;;;15.70;99.90;;;;;;5002227;28;20185;-62
2021/09/02 05:05:37;;;;;;;11.03;9.20;;;15.60;99.90;;;;;;5002447;28;20755;-62
2021/09/02 05:08:03;;;;;;;14.60;9.93;;;15.70;99.90;;;;;;5003960;28;20954;-62
2021/09/02 05:10:30;;;;;;;14.80;10.50;;;15.50;99.90;;;;;;5005963;28;20471;-62
2021/09/02 05:12:55;;;;;;;14.87;10.37;;;15.50;99.90;;;;;;5003074;28;20491;-61
2021/09/02 05:15:21;;;;;;;11.33;9.57;;;15.60;99.90;;;;;;5000410;28;20986;-62
2021/09/02 05:17:47;;;;;;;15.23;10.70;;;15.60;99.90;;;;;;5002052;28;20189;-62
2021/09/02 05:20:14;;;;;;;14.23;10.27;;;15.50;99.90;;;;;;5004199;28;20239;-62
2021/09/02 05:22:41;;;;;;;9.67;8.67;;;15.50;99.90;;;;;;5002121;28;20440;-62
2021/09/02 05:25:08;;;;;;;12.63;10.57;;;15.60;99.90;;;;;;5000840;28;20470;-62
2021/09/02 05:27:33;;;;;;;11.63;9.80;;;15.60;99.90;;;;;;5001181;28;20448;-62
2021/09/02 05:30:04;;;;;;;12.47;9.53;;;15.50;99.90;;;;;;4999263;28;20531;-62
2021/09/02 05:32:29;;;;;;;18.63;10.20;;;15.50;99.90;;;;;;4999612;28;20224;-62
2021/09/02 05:34:55;;;;;;;12.93;10.63;;;15.40;99.90;;;;;;5000976;28;20463;-62
2021/09/02 05:37:20;;;;;;;13.67;10.33;;;15.40;99.90;;;;;;4999984;28;20678;-62
2021/09/02 05:39:46;;;;;;;13.00;9.53;;;15.30;99.90;;;;;;5004046;28;20220;-62
2021/09/02 05:42:12;;;;;;;12.10;9.63;;;15.40;99.90;;;;;;5005045;28;20189;-62
2021/09/02 05:44:37;;;;;;;12.80;9.47;;;15.40;99.90;;;;;;5003477;28;20209;-62
2021/09/02 05:47:03;;;;;;;14.20;11.03;;;15.40;99.90;;;;;;4998799;28;20208;-62
2021/09/02 05:49:29;;;;;;;15.00;10.83;;;15.30;99.90;;;;;;5003339;28;20251;-62
2021/09/02 05:51:55;;;;;;;11.97;10.13;;;15.40;99.90;;;;;;4996278;28;20444;-62
2021/09/02 05:54:21;;;;;;;13.10;10.30;;;15.40;99.90;;;;;;5002501;28;20274;-62
2021/09/02 05:56:47;;;;;;;10.33;9.17;;;15.40;99.90;;;;;;5001836;28;20463;-62
2021/09/02 05:59:12;;;;;;;11.17;9.57;;;15.40;99.90;;;;;;5002063;28;20219;-62
2021/09/02 06:01:38;;;;;;;11.23;9.10;;;15.40;99.90;;;;;;5001535;28;20238;-62
2021/09/02 06:04:04;;;;;;;11.77;9.60;;;15.50;99.90;;;;;;4996937;28;20259;-62
2021/09/02 06:06:30;;;;;;;11.10;9.73;;;15.50;99.90;;;;;;4998813;28;20216;-62
2021/09/02 06:08:55;;;;;;;12.70;9.70;;;15.40;99.90;;;;;;5002268;28;20197;-62
2021/09/02 06:11:21;;;;;;;11.27;9.53;;;15.50;99.90;;;;;;4999047;28;20203;-62
2021/09/02 06:13:46;;;;;;;11.57;9.40;;;15.50;99.90;;;;;;5000106;28;20277;-61
2021/09/02 06:16:12;;;;;;;12.70;10.10;;;15.60;99.90;;;;;;4999255;28;20290;-61
2021/09/02 06:18:38;;;;;;;12.63;9.53;;;15.70;99.90;;;;;;4999689;28;20843;-62
2021/09/02 06:21:03;;;;;;;11.50;9.80;;;15.80;99.90;;;;;;4997448;28;20209;-61
2021/09/02 06:23:29;;;;;;;12.13;9.07;;;15.80;99.90;;;;;;4996930;28;20203;-61
2021/09/02 06:25:55;;;;;;;10.70;8.80;;;15.90;99.90;;;;;;4994559;28;20218;-61
2021/09/02 06:28:20;;;;;;;11.30;9.57;;;15.80;99.90;;;;;;4999054;28;20199;-61
2021/09/02 06:30:46;;;;;;;11.83;9.20;;;15.70;99.90;;;;;;4995656;28;20200;-61
2021/09/02 06:33:12;;;;;;;14.40;10.13;;;15.70;99.90;;;;;;4997939;28;20201;-61
2021/09/02 06:35:38;;;;;;;14.63;10.30;;;15.70;99.90;;;;;;4998690;28;20303;-61
2021/09/02 06:38:05;;;;;;;13.33;10.10;;;15.70;99.90;;;;;;4996741;28;20197;-62
2021/09/02 06:40:31;;;;;;;12.50;9.13;;;15.80;99.90;;;;;;5002338;28;20205;-61
2021/09/02 06:42:57;;;;;;;11.87;9.00;;;15.80;99.90;;;;;;4998163;28;20433;-62
2021/09/02 06:45:22;;;;;;;15.87;10.57;;;15.90;99.90;;;;;;4997955;28;20583;-61
2021/09/02 06:47:48;;;;;;;11.43;9.00;;;16.00;99.90;;;;;;5000920;28;20213;-62
2021/09/02 06:50:14;;;;;;;11.50;9.50;;;16.20;99.90;;;;;;4995032;28;20190;-62
2021/09/02 06:52:43;;;;;;;11.87;9.20;;;16.30;99.90;;;;;;4996769;28;20652;-62
2021/09/02 06:55:10;;;;;;;10.67;8.80;;;16.40;99.90;;;;;;4999834;28;20460;-62
2021/09/02 06:57:36;;;;;;;11.33;9.70;;;16.30;99.90;;;;;;5000661;28;20475;-62
2021/09/02 07:00:05;;;;;;;9.67;8.43;;;16.20;99.90;;;;;;4999430;28;20905;-62
2021/09/02 07:02:30;;;;;;;12.30;9.13;;;16.30;99.90;;;;;;5002091;28;20547;-62
2021/09/02 07:04:56;;;;;;;10.80;9.07;;;16.30;99.90;;;;;;4997841;28;20543;-62
2021/09/02 07:07:22;;;;;;;14.50;8.27;;;16.30;99.90;;;;;;4999308;28;20185;-62
2021/09/02 07:09:47;;;;;;;11.77;8.17;;;16.50;99.90;;;;;;5001538;28;20216;-62
2021/09/02 07:12:13;;;;;;;15.20;9.17;;;16.40;99.90;;;;;;4996858;28;20898;-62
2021/09/02 07:14:39;;;;;;;10.70;7.10;;;16.60;99.90;;;;;;4999546;28;20205;-62
2021/09/02 07:17:05;;;;;;;8.90;7.97;;;16.60;99.90;;;;;;4998353;28;20205;-63
2021/09/02 07:19:31;;;;;;;11.30;9.00;;;16.50;99.90;;;;;;5000406;28;20267;-62
2021/09/02 07:21:56;;;;;;;11.10;8.50;;;16.50;99.90;;;;;;5001434;28;20938;-62
2021/09/02 07:24:22;;;;;;;11.13;9.20;;;16.50;99.90;;;;;;4999486;28;20739;-62
2021/09/02 07:26:48;;;;;;;12.60;8.63;;;16.60;99.90;;;;;;4996389;28;20213;-61
2021/09/02 07:29:13;;;;;;;9.23;7.80;;;16.60;99.90;;;;;;5000119;28;20247;-61
2021/09/02 07:31:39;;;;;;;10.00;7.97;;;16.70;99.90;;;;;;4997705;28;20238;-61
2021/09/02 07:34:06;;;;;;;12.63;7.83;;;16.70;99.90;;;;;;5001230;28;20225;-61
2021/09/02 07:36:31;;;;;;;13.20;9.10;;;16.80;99.90;;;;;;5000570;28;20197;-62
2021/09/02 07:38:57;;;;;;;12.17;8.80;;;16.90;99.90;;;;;;4999169;28;20923;-61
2021/09/02 07:41:23;;;;;;;9.37;7.67;;;16.90;99.90;;;;;;5001046;28;20683;-64
2021/09/02 07:43:49;;;;;;;9.00;7.80;;;16.90;99.90;;;;;;4999571;28;20509;-61
2021/09/02 07:46:15;;;;;;;12.17;7.37;;;16.90;99.90;;;;;;5000604;28;20484;-62
2021/09/02 07:48:42;;;;;;;9.20;7.50;;;17.00;99.90;;;;;;4996398;28;20225;-63
2021/09/02 07:51:07;;;;;;;10.20;8.03;;;17.10;99.90;;;;;;5000428;28;21817;-62
2021/09/02 07:53:33;;;;;;;11.50;8.07;;;17.10;99.90;;;;;;4998577;28;20534;-62
2021/09/02 07:55:59;;;;;;;8.53;6.90;;;17.10;99.90;;;;;;5001745;28;20300;-62
2021/09/02 07:58:24;;;;;;;7.73;6.93;;;17.20;99.90;;;;;;5003272;28;20629;-63
2021/09/02 08:00:50;;;;;;;13.10;7.73;;;17.30;99.90;;;;;;5001923;28;20209;-63
2021/09/02 08:03:16;;;;;;;12.40;8.10;;;17.40;99.90;;;;;;5003622;28;20210;-63
2021/09/02 08:05:41;;;;;;;10.10;7.90;;;17.50;99.90;;;;;;5003898;28;20216;-63
2021/09/02 08:08:07;;;;;;;13.83;7.87;;;17.60;99.90;;;;;;5003944;28;20236;-63
2021/09/02 08:10:34;;;;;;;9.90;6.80;;;17.60;99.90;;;;;;5002742;28;20181;-63
2021/09/02 08:12:59;;;;;;;9.93;7.37;;;17.70;99.90;;;;;;5001944;28;20263;-63
2021/09/02 08:15:26;;;;;;;8.47;7.57;;;17.70;99.90;;;;;;5002084;28;20464;-63
2021/09/02 08:17:53;;;;;;;12.13;7.90;;;17.80;99.90;;;;;;5002411;28;20205;-63
2021/09/02 08:20:20;;;;;;;10.40;6.83;;;17.80;99.90;;;;;;5006378;28;20495;-63
2021/09/02 08:22:47;;;;;;;10.60;6.60;;;17.80;99.90;;;;;;5002499;28;20442;-63
2021/09/02 08:25:14;;;;;;;14.97;7.07;;;17.90;99.90;;;;;;5001943;28;20462;-61
2021/09/02 08:27:41;;;;;;;8.20;7.30;;;18.00;99.90;;;;;;5002333;28;20451;-61
2021/09/02 08:30:08;;;;;;;8.47;7.57;;;18.00;99.90;;;;;;5001983;28;20995;-61
2021/09/02 08:32:34;;;;;;;8.60;7.00;;;18.00;99.90;;;;;;5002628;28;20432;-63
2021/09/02 08:35:00;;;;;;;8.80;7.77;;;18.10;99.90;;;;;;5003333;28;20842;-61
2021/09/02 08:37:25;;;;;;;7.67;6.97;;;18.20;99.90;;;;;;5004323;28;21044;-61
2021/09/02 08:39:52;;;;;;;9.20;7.67;;;18.30;99.90;;;;;;5006023;28;20205;-62
2021/09/02 08:42:18;;;;;;;8.00;6.83;;;18.40;99.90;;;;;;4997195;28;20185;-62
2021/09/02 08:44:44;;;;;;;9.27;7.17;;;18.40;99.90;;;;;;5003213;28;20450;-62
2021/09/02 08:47:11;;;;;;;9.00;6.30;;;18.50;99.90;;;;;;5002902;28;20456;-63
2021/09/02 08:49:37;;;;;;;13.47;6.50;;;18.50;99.90;;;;;;5001957;28;20203;-62
2021/09/02 08:52:04;;;;;;;8.37;7.13;;;18.60;99.90;;;;;;5001840;28;20473;-63
2021/09/02 08:54:34;;;;;;;7.50;6.33;;;18.70;99.90;;;;;;5003899;28;20433;-62
2021/09/02 08:57:00;;;;;;;7.77;6.17;;;18.80;99.90;;;;;;5001098;28;20506;-63
2021/09/02 08:59:25;;;;;;;8.90;6.53;;;18.80;99.90;;;;;;5002522;28;20522;-63
2021/09/02 09:01:51;;;;;;;8.17;6.23;;;18.90;99.90;;;;;;4999309;28;20217;-63
2021/09/02 09:04:17;;;;;;;7.00;6.30;;;19.00;99.90;;;;;;5001524;28;20196;-62
2021/09/02 09:06:44;;;;;;;10.63;6.30;;;19.10;99.90;;;;;;5001070;28;20461;-61
2021/09/02 09:09:17;;;;;;;7.33;6.60;;;19.20;99.90;;;;;;5002005;28;20826;-62
2021/09/02 09:11:53;;;;;;;8.20;5.90;;;19.40;99.90;;;;;;5001114;28;20452;-62
2021/09/02 09:14:23;;;;;;;5.93;5.33;;;19.40;99.90;;;;;;5000904;28;20412;-61
2021/09/02 09:16:53;;;;;;;7.10;6.30;;;19.50;99.90;;;;;;4999431;28;20515;-61
2021/09/02 09:19:42;;;;;;;7.87;5.70;;;19.60;99.90;;;;;;5003354;28;20575;-60
2021/09/02 09:22:13;;;;;;;7.50;6.80;;;19.60;99.90;;;;;;5001705;28;21314;-61
2021/09/02 09:25:03;;;;;;;7.60;6.17;;;19.60;99.90;;;;;;5001561;28;20448;-60
2021/09/02 09:27:35;;;;;;;8.40;6.00;;;19.70;99.90;;;;;;5001571;28;20511;-60
2021/09/02 09:30:28;;;;;;;8.17;5.53;;;19.80;99.90;;;;;;5000291;28;20483;-60
2021/09/02 09:32:56;;;;;;;6.77;5.83;;;19.90;99.90;;;;;;4997831;28;20519;-60
2021/09/02 09:35:41;;;;;;;6.47;5.40;;;20.00;99.90;;;;;;5000156;28;20891;-60
2021/09/02 09:38:18;;;;;;;6.53;5.87;;;20.10;99.90;;;;;;5002341;28;20472;-60
2021/09/02 09:40:52;;;;;;;6.87;6.17;;;20.10;99.90;;;;;;4999086;28;20560;-61
2021/09/02 09:43:22;;;;;;;7.17;5.53;;;20.20;99.90;;;;;;5002217;28;20458;-61
2021/09/02 09:45:50;;;;;;;6.30;5.70;;;20.30;99.90;;;;;;5002754;28;21014;-61
2021/09/02 09:48:34;;;;;;;5.83;5.23;;;20.40;99.90;;;;;;4999298;28;20491;-61
2021/09/02 09:51:11;;;;;;;7.70;6.07;;;20.40;99.90;;;;;;5002864;28;20436;-61
2021/09/02 09:53:38;;;;;;;7.13;6.00;;;20.40;99.90;;;;;;5001480;28;20506;-61
2021/09/02 09:56:04;;;;;;;6.80;5.70;;;20.40;99.90;;;;;;4999202;28;20819;-61
2021/09/02 09:58:30;;;;;;;10.93;6.70;;;20.60;99.90;;;;;;5003464;28;20467;-61
2021/09/02 10:00:58;;;;;;;6.97;6.20;;;20.60;99.90;;;;;;5002328;28;20754;-61
2021/09/02 10:03:24;;;;;;;7.10;6.40;;;20.60;99.90;;;;;;5002662;28;20558;-61
2021/09/02 10:05:51;;;;;;;6.27;5.30;;;20.60;99.90;;;;;;4999947;28;20436;-61
2021/09/02 10:08:19;;;;;;;8.50;5.70;;;20.70;99.90;;;;;;5003014;28;20460;-60
2021/09/02 10:10:47;;;;;;;7.33;5.63;;;20.80;99.90;;;;;;5000167;28;20444;-61
2021/09/02 10:13:13;;;;;;;6.50;5.33;;;20.90;99.90;;;;;;4997823;28;20436;-61
2021/09/02 10:15:39;;;;;;;8.00;6.57;;;20.90;99.90;;;;;;5002041;28;20457;-61
2021/09/02 10:18:06;;;;;;;6.30;5.27;;;21.00;99.90;;;;;;5002193;28;20957;-60
2021/09/02 10:20:38;;;;;;;6.47;5.87;;;21.00;99.90;;;;;;5004111;28;20598;-61
2021/09/02 10:23:05;;;;;;;6.30;5.10;;;21.20;99.90;;;;;;5003435;28;20440;-61
2021/09/02 10:25:34;;;;;;;6.80;5.93;;;21.30;99.90;;;;;;4998097;28;20871;-61
2021/09/02 10:28:06;;;;;;;6.73;5.37;;;21.40;99.90;;;;;;5000988;28;20446;-61
2021/09/02 10:30:38;;;;;;;10.50;5.87;;;21.40;99.90;;;;;;5002046;28;20444;-61
2021/09/02 10:33:33;;;;;;;8.60;5.80;;;21.40;99.90;;;;;;5000271;28;20516;-61
2021/09/02 10:36:00;;;;;;;8.63;5.83;;;21.50;99.90;;;;;;5002985;28;20448;-61
2021/09/02 10:38:40;;;;;;;6.17;5.57;;;21.50;99.90;;;;;;4999674;28;20429;-61
2021/09/02 10:41:06;;;;;;;6.20;5.47;;;21.60;99.90;;;;;;5003974;28;20468;-65
2021/09/02 10:43:53;;;;;;;6.23;5.57;;;21.60;99.90;;;;;;5002527;28;20424;-65
2021/09/02 10:46:44;;;;;;;7.37;5.77;;;21.60;99.90;;;;;;5000960;28;20827;-64
2021/09/02 10:49:31;;;;;;;8.13;5.93;;;21.70;99.90;;;;;;4999970;28;20441;-64
2021/09/02 10:52:04;;;;;;;6.37;5.77;;;21.70;99.90;;;;;;5002431;28;20451;-65
2021/09/02 10:54:37;;;;;;;7.10;6.10;;;21.80;99.90;;;;;;5000789;28;20523;-64
2021/09/02 10:57:13;;;;;;;7.37;5.53;;;21.90;99.90;;;;;;5001972;28;20448;-64
2021/09/02 10:59:52;;;;;;;7.43;6.13;;;22.00;99.90;;;;;;5002559;28;20482;-64
2021/09/02 11:02:17;;;;;;;7.60;6.27;;;22.10;99.90;;;;;;5002632;28;20581;-64
2021/09/02 11:04:44;;;;;;;6.80;6.10;;;22.20;99.90;;;;;;5003708;28;20503;-64
2021/09/02 11:07:10;;;;;;;5.97;5.37;;;22.20;99.90;;;;;;5000945;28;20212;-64
2021/09/02 11:09:41;;;;;;;10.70;5.80;;;22.30;99.90;;;;;;5005738;28;20436;-64
2021/09/02 11:12:12;;;;;;;7.77;6.10;;;22.40;99.90;;;;;;4999776;28;20527;-65
2021/09/02 11:14:46;;;;;;;9.83;5.60;;;22.50;99.90;;;;;;5005150;28;20493;-65
2021/09/02 11:17:13;;;;;;;6.03;5.40;;;22.50;99.90;;;;;;5002176;28;20448;-65
2021/09/02 11:19:41;;;;;;;5.60;5.10;;;22.60;99.90;;;;;;4999724;28;20973;-65
2021/09/02 11:22:15;;;;;;;6.63;5.30;;;22.70;99.90;;;;;;5003397;28;20504;-65
2021/09/02 11:24:44;;;;;;;6.67;5.97;;;22.80;99.90;;;;;;5000796;28;20865;-65
2021/09/02 11:27:12;;;;;;;7.20;5.90;;;22.80;99.90;;;;;;5001335;28;20485;-64
2021/09/02 11:29:38;;;;;;;7.97;4.80;;;22.90;99.90;;;;;;5002001;28;20443;-65
2021/09/02 11:32:12;;;;;;;6.00;5.47;;;23.00;99.90;;;;;;5003859;28;20439;-65
2021/09/02 11:34:39;;;;;;;6.17;5.50;;;23.10;99.90;;;;;;5005448;28;20444;-65
2021/09/02 11:37:05;;;;;;;7.20;6.20;;;23.20;99.90;;;;;;5006011;28;20452;-64
2021/09/02 11:39:39;;;;;;;5.70;5.07;;;23.30;99.90;;;;;;5006498;28;21064;-64
2021/09/02 11:42:10;;;;;;;8.40;6.03;;;23.30;99.90;;;;;;5000715;28;20451;-63
2021/09/02 11:44:38;;;;;;;5.60;5.10;;;23.40;99.90;;;;;;5002218;28;20807;-64
2021/09/02 11:47:07;;;;;;;6.47;5.70;;;23.50;99.90;;;;;;5004127;28;20894;-63
2021/09/02 11:49:33;;;;;;;9.30;5.80;;;23.60;99.90;;;;;;5001384;28;20459;-64
2021/09/02 11:51:59;;;;;;;7.27;6.10;;;23.80;99.90;;;;;;5005789;28;20416;-63
2021/09/02 11:54:26;;;;;;;7.13;6.30;;;24.00;99.90;;;;;;5001945;28;20510;-64
2021/09/02 11:56:52;;;;;;;5.80;5.27;;;24.20;99.90;;;;;;5002734;28;20451;-64
2021/09/02 11:59:19;;;;;;;6.43;5.73;;;24.50;99.90;;;;;;5004600;28;20459;-64
2021/09/02 12:01:46;;;;;;;5.50;5.00;;;24.90;99.90;;;;;;5003996;28;20558;-65
2021/09/02 12:04:23;;;;;;;6.73;5.63;;;25.60;99.90;;;;;;5004401;28;20472;-64
2021/09/02 12:06:52;;;;;;;6.37;5.70;;;26.70;99.90;;;;;;5004894;28;20451;-64
2021/09/02 12:09:20;;;;;;;5.80;5.30;;;27.00;99.90;;;;;;5005105;28;20988;-64
2021/09/02 12:11:47;;;;;;;6.20;5.60;;;28.10;99.90;;;;;;5004894;28;20483;-64
2021/09/02 12:14:19;;;;;;;6.87;6.00;;;28.50;99.90;;;;;;5005862;28;20421;-64
2021/09/02 12:16:46;;;;;;;6.47;5.87;;;29.20;99.90;;;;;;5004124;28;20440;-64
2021/09/02 12:19:12;;;;;;;7.03;6.33;;;29.90;99.40;;;;;;5007015;28;20841;-64
2021/09/02 12:21:38;;;;;;;7.90;6.03;;;30.10;97.00;;;;;;5005370;28;20471;-65
2021/09/02 12:24:10;;;;;;;7.50;5.47;;;29.60;95.50;;;;;;5004711;28;20436;-65
2021/09/02 12:26:51;;;;;;;7.80;7.00;;;30.20;95.10;;;;;;5006984;28;20450;-64
2021/09/02 12:29:19;;;;;;;7.40;5.87;;;30.80;92.90;;;;;;5004669;28;20445;-64
2021/09/02 12:31:46;;;;;;;7.47;6.73;;;31.30;91.70;;;;;;5004424;28;20805;-64
2021/09/02 12:34:24;;;;;;;6.30;5.70;;;31.00;91.30;;;;;;5004608;28;21040;-64
2021/09/02 12:37:16;;;;;;;6.50;5.77;;;31.70;89.10;;;;;;5000755;28;20844;-64
2021/09/02 12:39:49;;;;;;;6.37;5.80;;;32.10;85.40;;;;;;5001625;28;20483;-64
2021/09/02 12:42:29;;;;;;;7.17;6.40;;;32.70;83.80;;;;;;4999355;28;20431;-64